Time;durP1;ratioP1;P1;durP2;ratioP2;P2;SDS_P1;SDS_P2;PMS_P1;PMS_P2;Temp;Humidity;BMP_temperature;BMP_pressure;BME280_temperature;BME280_humidity;BME280_pressure;Samples;Min_cycle;Max_cycle;Signal;HPM_P1;HPM_P2
2021/09/17 00:01:07;;;;;;;1.40;1.27;;;;;;;;;;5010426;28;20792;-79
2021/09/17 00:03:33;;;;;;;0.80;0.70;;;;;;;;;;5009592;28;20553;-79
2021/09/17 00:05:59;;;;;;;0.93;0.90;;;;;;;;;;5011519;28;21136;-78
2021/09/17 00:08:24;;;;;;;0.80;0.60;;;;;;;;;;5012392;28;20485;-78
2021/09/17 00:10:50;;;;;;;1.10;1.00;;;;;;;;;;5005239;28;20446;-80
2021/09/17 00:13:16;;;;;;;0.80;0.70;;;;;;;;;;4993368;28;20431;-80
2021/09/17 00:15:42;;;;;;;0.80;0.60;;;;;;;;;;5012195;28;20452;-82
2021/09/17 00:18:08;;;;;;;1.00;0.88;;;;;;;;;;5009434;28;20180;-79
2021/09/17 00:20:35;;;;;;;1.43;1.33;;;;;;;;;;5012802;28;20194;-80
2021/09/17 00:23:01;;;;;;;1.10;0.80;;;;;;;;;;5012481;28;20492;-80
2021/09/17 00:25:27;;;;;;;1.37;1.27;;;;;;;;;;5010395;28;20211;-80
2021/09/17 00:27:53;;;;;;;0.93;0.80;;;;;;;;;;5013903;28;20441;-80
2021/09/17 00:30:19;;;;;;;0.80;0.60;;;;;;;;;;5016139;28;20512;-78
2021/09/17 00:32:45;;;;;;;1.65;1.00;;;;;;;;;;5016985;28;20426;-79
2021/09/17 00:35:12;;;;;;;0.88;0.80;;;;;;;;;;5016126;28;20193;-79
2021/09/17 00:37:38;;;;;;;1.45;1.17;;;;;;;;;;5015886;28;20207;-80
2021/09/17 00:40:04;;;;;;;0.80;0.70;;;;;;;;;;5016158;28;20656;-78
2021/09/17 00:42:30;;;;;;;0.90;0.80;;;;;;;;;;5017568;28;20187;-78
2021/09/17 00:44:56;;;;;;;1.17;1.10;;;;;;;;;;5012227;28;20216;-79
2021/09/17 00:47:22;;;;;;;1.40;1.30;;;;;;;;;;5015490;28;20946;-79
2021/09/17 00:49:48;;;;;;;1.87;1.27;;;;;;;;;;5017928;28;20440;-80
2021/09/17 00:52:14;;;;;;;0.80;0.60;;;;;;;;;;5017833;28;20427;-79
2021/09/17 00:54:41;;;;;;;1.50;1.00;;;;;;;;;;5016169;28;20417;-79
2021/09/17 00:57:07;;;;;;;2.55;0.80;;;;;;;;;;5011203;28;20214;-80
2021/09/17 00:59:33;;;;;;;0.80;0.60;;;;;;;;;;5015750;28;20314;-79
2021/09/17 01:01:59;;;;;;;0.80;0.60;;;;;;;;;;5014542;28;20925;-79
2021/09/17 01:04:25;;;;;;;1.45;0.85;;;;;;;;;;5015370;28;20466;-78
2021/09/17 01:06:51;;;;;;;1.20;1.10;;;;;;;;;;5015656;28;20585;-80
2021/09/17 01:09:17;;;;;;;2.75;0.90;;;;;;;;;;5017172;28;20185;-80
2021/09/17 01:11:44;;;;;;;1.38;0.95;;;;;;;;;;4997832;28;20645;-79
2021/09/17 01:14:10;;;;;;;0.80;0.60;;;;;;;;;;5017135;28;20234;-79
2021/09/17 01:16:36;;;;;;;1.13;1.02;;;;;;;;;;5016551;28;20211;-78
2021/09/17 01:19:02;;;;;;;0.80;0.80;;;;;;;;;;5018611;28;20245;-81
2021/09/17 01:21:28;;;;;;;0.90;0.80;;;;;;;;;;5017691;28;20272;-80
2021/09/17 01:23:54;;;;;;;1.00;0.90;;;;;;;;;;5016455;28;21004;-79
2021/09/17 01:26:20;;;;;;;0.80;0.80;;;;;;;;;;5009827;28;21032;-78
2021/09/17 01:28:46;;;;;;;0.88;0.80;;;;;;;;;;5010160;28;20419;-81
2021/09/17 01:31:12;;;;;;;0.80;0.80;;;;;;;;;;5022499;28;20740;-80
2021/09/17 01:33:38;;;;;;;0.80;0.80;;;;;;;;;;5017686;28;20433;-80
2021/09/17 01:36:06;;;;;;;1.07;0.97;;;;;;;;;;5016468;28;20544;-78
2021/09/17 01:38:33;;;;;;;1.35;1.08;;;;;;;;;;5016104;28;20855;-80
2021/09/17 01:40:59;;;;;;;1.55;1.20;;;;;;;;;;5015625;28;20219;-79
2021/09/17 01:43:26;;;;;;;0.82;0.82;;;;;;;;;;5015105;28;20183;-80
2021/09/17 01:45:52;;;;;;;2.55;1.20;;;;;;;;;;5014514;28;20237;-80
2021/09/17 01:48:18;;;;;;;0.80;0.63;;;;;;;;;;5014824;28;20178;-80
2021/09/17 01:50:44;;;;;;;1.02;0.93;;;;;;;;;;5014148;28;20427;-79
2021/09/17 01:53:10;;;;;;;0.80;0.77;;;;;;;;;;4994246;28;20534;-80
2021/09/17 01:55:36;;;;;;;0.90;0.90;;;;;;;;;;5023064;28;20537;-80
2021/09/17 01:58:02;;;;;;;1.70;1.60;;;;;;;;;;5022234;28;20226;-79
2021/09/17 02:00:28;;;;;;;1.58;1.48;;;;;;;;;;5024506;28;20191;-79
2021/09/17 02:02:54;;;;;;;1.77;1.30;;;;;;;;;;5017533;28;20702;-78
2021/09/17 02:05:20;;;;;;;2.70;1.53;;;;;;;;;;5017630;28;20470;-80
2021/09/17 02:07:47;;;;;;;0.90;0.80;;;;;;;;;;5018141;28;20486;-80
2021/09/17 02:10:13;;;;;;;0.80;0.65;;;;;;;;;;5014516;28;20513;-80
2021/09/17 02:12:42;;;;;;;1.05;0.95;;;;;;;;;;5015547;28;20188;-78
2021/09/17 02:15:09;;;;;;;1.08;0.90;;;;;;;;;;5008808;28;20655;-79
2021/09/17 02:17:35;;;;;;;1.38;1.27;;;;;;;;;;5016389;28;20206;-80
2021/09/17 02:20:01;;;;;;;1.57;0.90;;;;;;;;;;5016755;28;20260;-80
2021/09/17 02:22:27;;;;;;;0.80;0.80;;;;;;;;;;5009274;28;20426;-80
2021/09/17 02:24:53;;;;;;;2.13;1.98;;;;;;;;;;5015111;28;20579;-80
2021/09/17 02:27:19;;;;;;;2.70;1.70;;;;;;;;;;5017409;28;20781;-80
2021/09/17 02:29:45;;;;;;;1.00;0.77;;;;;;;;;;5018598;28;20431;-80
2021/09/17 02:32:13;;;;;;;1.23;1.13;;;;;;;;;;5016673;28;20179;-80
2021/09/17 02:34:39;;;;;;;1.77;1.67;;;;;;;;;;5018105;28;20388;-81
2021/09/17 02:37:05;;;;;;;2.90;2.10;;;;;;;;;;5008609;28;20485;-80
2021/09/17 02:39:31;;;;;;;1.48;1.17;;;;;;;;;;5017049;28;20429;-80
2021/09/17 02:41:57;;;;;;;2.40;1.70;;;;;;;;;;5017856;28;20218;-80
2021/09/17 02:44:23;;;;;;;0.90;0.80;;;;;;;;;;5017607;28;20463;-80
2021/09/17 02:46:49;;;;;;;2.83;2.67;;;;;;;;;;5015927;28;20585;-80
2021/09/17 02:49:15;;;;;;;7.13;1.77;;;;;;;;;;5017273;28;20435;-79
2021/09/17 02:51:41;;;;;;;2.10;1.90;;;;;;;;;;5015244;28;20505;-81
2021/09/17 02:54:07;;;;;;;1.13;1.03;;;;;;;;;;5017128;28;20523;-80
2021/09/17 02:56:33;;;;;;;2.80;1.47;;;;;;;;;;5030281;22;20454;-74
2021/09/17 02:58:59;;;;;;;1.40;1.30;;;;;;;;;;5013231;28;20446;-75
2021/09/17 03:01:25;;;;;;;2.08;1.88;;;;;;;;;;5011912;28;20191;-75
2021/09/17 03:03:51;;;;;;;2.67;2.13;;;;;;;;;;5008690;28;20257;-74
2021/09/17 03:06:17;;;;;;;2.67;2.47;;;;;;;;;;5010861;28;20210;-74
2021/09/17 03:08:43;;;;;;;1.60;1.50;;;;;;;;;;4998218;28;20492;-75
2021/09/17 03:11:09;;;;;;;2.83;1.92;;;;;;;;;;5011736;28;20187;-75
2021/09/17 03:13:35;;;;;;;2.43;2.23;;;;;;;;;;5010845;28;20190;-75
2021/09/17 03:16:02;;;;;;;2.67;2.47;;;;;;;;;;5008876;28;20441;-75
2021/09/17 03:18:28;;;;;;;1.92;1.83;;;;;;;;;;5010150;28;20458;-75
2021/09/17 03:20:54;;;;;;;4.63;3.53;;;;;;;;;;5010027;28;20245;-75
2021/09/17 03:23:20;;;;;;;6.10;3.03;;;;;;;;;;5011733;28;20810;-74
2021/09/17 03:25:46;;;;;;;2.30;2.13;;;;;;;;;;5011832;28;20210;-74
2021/09/17 03:28:12;;;;;;;2.45;2.25;;;;;;;;;;5012284;28;20203;-74
2021/09/17 03:30:38;;;;;;;2.47;2.28;;;;;;;;;;5009066;28;20636;-75
2021/09/17 03:33:04;;;;;;;1.97;1.50;;;;;;;;;;5004267;28;20182;-74
2021/09/17 03:35:30;;;;;;;2.50;2.40;;;;;;;;;;5011665;28;20469;-74
2021/09/17 03:37:56;;;;;;;1.67;1.30;;;;;;;;;;5010849;28;20596;-75
2021/09/17 03:40:22;;;;;;;4.43;1.93;;;;;;;;;;5009988;28;20446;-74
2021/09/17 03:42:48;;;;;;;3.83;2.03;;;;;;;;;;5007780;28;20447;-75
2021/09/17 03:45:14;;;;;;;4.65;4.03;;;;;;;;;;5009830;28;20458;-74
2021/09/17 03:47:40;;;;;;;2.53;2.33;;;;;;;;;;5009683;28;20686;-74
2021/09/17 03:50:07;;;;;;;4.40;2.40;;;;;;;;;;5011116;28;20218;-74
2021/09/17 03:52:33;;;;;;;2.65;2.45;;;;;;;;;;5010645;28;20187;-75
2021/09/17 03:54:59;;;;;;;2.65;2.00;;;;;;;;;;5009647;28;20283;-75
2021/09/17 03:57:25;;;;;;;2.90;2.80;;;;;;;;;;5010894;28;20687;-74
2021/09/17 03:59:51;;;;;;;2.10;1.33;;;;;;;;;;5016352;28;21023;-74
2021/09/17 04:02:17;;;;;;;1.77;1.67;;;;;;;;;;5009112;28;20205;-74
2021/09/17 04:04:43;;;;;;;3.50;2.80;;;;;;;;;;5011363;28;20283;-74
2021/09/17 04:07:09;;;;;;;4.37;2.17;;;;;;;;;;5010178;28;20450;-74
2021/09/17 04:09:35;;;;;;;2.03;1.30;;;;;;;;;;5011719;28;20411;-75
2021/09/17 04:12:02;;;;;;;2.87;2.67;;;;;;;;;;5011020;28;20431;-74
2021/09/17 04:14:28;;;;;;;4.45;2.95;;;;;;;;;;5011997;28;20452;-75
2021/09/17 04:16:54;;;;;;;3.10;2.77;;;;;;;;;;5010831;28;20231;-75
2021/09/17 04:19:20;;;;;;;4.10;2.23;;;;;;;;;;5011999;28;20942;-74
2021/09/17 04:21:46;;;;;;;2.50;2.30;;;;;;;;;;5011669;28;20382;-74
2021/09/17 04:24:12;;;;;;;2.30;1.83;;;;;;;;;;5011697;28;20619;-73
2021/09/17 04:26:38;;;;;;;3.47;3.17;;;;;;;;;;5011565;28;20442;-74
2021/09/17 04:29:04;;;;;;;4.15;2.92;;;;;;;;;;5022932;28;20427;-74
2021/09/17 04:31:31;;;;;;;3.85;2.50;;;;;;;;;;5021139;28;20175;-74
2021/09/17 04:33:57;;;;;;;4.20;3.90;;;;;;;;;;5011669;28;20202;-74
2021/09/17 04:36:23;;;;;;;3.07;2.93;;;;;;;;;;5010833;28;20184;-73
2021/09/17 04:38:49;;;;;;;1.53;1.33;;;;;;;;;;5010935;28;20431;-74
2021/09/17 04:41:15;;;;;;;2.23;2.00;;;;;;;;;;5011555;28;20419;-74
2021/09/17 04:43:41;;;;;;;4.68;2.65;;;;;;;;;;5011231;28;20434;-74
2021/09/17 04:46:07;;;;;;;4.43;4.03;;;;;;;;;;5010147;28;20238;-73
2021/09/17 04:48:33;;;;;;;2.20;2.10;;;;;;;;;;5011648;28;20855;-73
2021/09/17 04:50:59;;;;;;;2.20;1.80;;;;;;;;;;5011226;28;20420;-74
2021/09/17 04:53:25;;;;;;;6.50;4.05;;;;;;;;;;5010361;28;20657;-74
2021/09/17 04:55:51;;;;;;;2.83;2.63;;;;;;;;;;5010884;28;20192;-73
2021/09/17 04:58:17;;;;;;;3.72;2.85;;;;;;;;;;5020672;28;20476;-73
2021/09/17 05:00:43;;;;;;;3.20;2.67;;;;;;;;;;5021060;28;20260;-73
2021/09/17 05:03:09;;;;;;;2.90;2.70;;;;;;;;;;5011514;28;20510;-73
2021/09/17 05:05:35;;;;;;;6.60;1.67;;;;;;;;;;5008389;28;20469;-73
2021/09/17 05:08:01;;;;;;;4.80;1.60;;;;;;;;;;4998628;28;20446;-73
2021/09/17 05:10:27;;;;;;;3.13;2.92;;;;;;;;;;5011450;28;20180;-72
2021/09/17 05:12:53;;;;;;;3.88;1.55;;;;;;;;;;5010417;28;20268;-73
2021/09/17 05:15:19;;;;;;;1.47;1.13;;;;;;;;;;5013823;28;20213;-73
2021/09/17 05:17:46;;;;;;;3.03;2.77;;;;;;;;;;5011712;28;20457;-73
2021/09/17 05:20:12;;;;;;;4.70;2.15;;;;;;;;;;5012553;28;20479;-74
2021/09/17 05:22:38;;;;;;;3.75;3.45;;;;;;;;;;5014546;28;20183;-74
2021/09/17 05:25:04;;;;;;;1.67;1.53;;;;;;;;;;5014758;28;20212;-73
2021/09/17 05:27:30;;;;;;;3.92;3.50;;;;;;;;;;5016760;28;20825;-73
2021/09/17 05:29:59;;;;;;;1.87;1.77;;;;;;;;;;5014251;28;20689;-74
2021/09/17 05:32:25;;;;;;;1.60;1.40;;;;;;;;;;5014047;28;20403;-74
2021/09/17 05:34:51;;;;;;;1.45;1.35;;;;;;;;;;5013829;28;20493;-74
2021/09/17 05:37:17;;;;;;;1.90;1.80;;;;;;;;;;5014086;28;20216;-73
2021/09/17 05:39:43;;;;;;;2.77;2.20;;;;;;;;;;5014004;28;20842;-74
2021/09/17 05:42:09;;;;;;;5.25;3.35;;;;;;;;;;5013743;28;20774;-73
2021/09/17 05:44:35;;;;;;;1.40;1.03;;;;;;;;;;5014247;28;20300;-73
2021/09/17 05:47:01;;;;;;;3.60;2.97;;;;;;;;;;5013823;28;20435;-73
2021/09/17 05:49:27;;;;;;;2.63;2.53;;;;;;;;;;5014484;28;20262;-73
2021/09/17 05:51:53;;;;;;;1.88;1.77;;;;;;;;;;5014019;28;20172;-73
2021/09/17 05:54:19;;;;;;;1.73;1.60;;;;;;;;;;5013584;28;20185;-73
2021/09/17 05:56:45;;;;;;;3.30;2.97;;;;;;;;;;5015243;28;20865;-74
2021/09/17 05:59:11;;;;;;;2.38;2.17;;;;;;;;;;5019158;28;20192;-73
2021/09/17 06:01:37;;;;;;;1.80;1.50;;;;;;;;;;5013869;28;20560;-74
2021/09/17 06:04:03;;;;;;;6.20;3.20;;;;;;;;;;5014065;28;20513;-73
2021/09/17 06:06:29;;;;;;;3.40;3.13;;;;;;;;;;5013362;28;20784;-73
2021/09/17 06:08:57;;;;;;;3.17;2.00;;;;;;;;;;5013950;28;20456;-74
2021/09/17 06:11:23;;;;;;;1.75;1.65;;;;;;;;;;5013036;28;20856;-73
2021/09/17 06:13:49;;;;;;;1.73;1.63;;;;;;;;;;5013407;28;20184;-73
2021/09/17 06:16:15;;;;;;;2.50;2.27;;;;;;;;;;5013168;28;20414;-73
2021/09/17 06:18:41;;;;;;;3.35;1.98;;;;;;;;;;5012201;28;20489;-74
2021/09/17 06:21:07;;;;;;;1.77;1.67;;;;;;;;;;5013303;28;20180;-74
2021/09/17 06:23:33;;;;;;;11.65;2.55;;;;;;;;;;5013311;28;20206;-74
2021/09/17 06:25:59;;;;;;;1.97;1.73;;;;;;;;;;5012701;28;20674;-74
2021/09/17 06:28:25;;;;;;;2.10;2.00;;;;;;;;;;5022836;28;20431;-74
2021/09/17 06:30:51;;;;;;;2.75;2.55;;;;;;;;;;5015214;28;20482;-73
2021/09/17 06:33:17;;;;;;;11.25;3.03;;;;;;;;;;5013454;28;20231;-74
2021/09/17 06:35:43;;;;;;;3.60;3.35;;;;;;;;;;5013092;28;20187;-74
2021/09/17 06:38:09;;;;;;;2.23;2.13;;;;;;;;;;5012850;28;20232;-73
2021/09/17 06:40:35;;;;;;;1.20;1.10;;;;;;;;;;4995679;28;20468;-74
2021/09/17 06:43:01;;;;;;;2.13;1.98;;;;;;;;;;4999923;28;20458;-73
2021/09/17 06:45:29;;;;;;;2.33;2.00;;;;;;;;;;5008771;28;20234;-73
2021/09/17 06:47:58;;;;;;;1.92;1.77;;;;;;;;;;5012403;28;20943;-73
2021/09/17 06:50:25;;;;;;;1.45;1.20;;;;;;;;;;5013482;28;20610;-73
2021/09/17 06:52:53;;;;;;;2.53;1.75;;;;;;;;;;5012437;28;20204;-73
2021/09/17 06:55:21;;;;;;;1.83;1.67;;;;;;;;;;5012841;28;20712;-73
2021/09/17 06:57:48;;;;;;;1.33;1.23;;;;;;;;;;5017448;28;20497;-73
2021/09/17 07:00:15;;;;;;;1.77;1.67;;;;;;;;;;5022621;28;20535;-73
2021/09/17 07:02:41;;;;;;;1.73;1.58;;;;;;;;;;5013038;28;20413;-74
2021/09/17 07:05:07;;;;;;;2.20;1.20;;;;;;;;;;4994995;28;20204;-73
2021/09/17 07:07:33;;;;;;;2.33;1.85;;;;;;;;;;5011834;28;20231;-73
2021/09/17 07:09:59;;;;;;;1.53;1.43;;;;;;;;;;5012379;28;20184;-73
2021/09/17 07:12:25;;;;;;;1.90;1.63;;;;;;;;;;5012233;28;20415;-73
2021/09/17 07:14:51;;;;;;;3.20;1.90;;;;;;;;;;5012349;28;20435;-74
2021/09/17 07:17:17;;;;;;;1.63;1.53;;;;;;;;;;5010610;28;20499;-74
2021/09/17 07:19:43;;;;;;;1.27;1.13;;;;;;;;;;5012652;28;20432;-73
2021/09/17 07:22:09;;;;;;;2.50;2.30;;;;;;;;;;5012658;28;20424;-73
2021/09/17 07:24:35;;;;;;;3.13;1.50;;;;;;;;;;5012246;28;20470;-73
2021/09/17 07:27:02;;;;;;;1.67;1.57;;;;;;;;;;4998346;28;20420;-74
2021/09/17 07:29:28;;;;;;;1.73;1.50;;;;;;;;;;5023792;28;20880;-74
2021/09/17 07:31:54;;;;;;;3.03;1.87;;;;;;;;;;5029420;28;20184;-73
2021/09/17 07:34:20;;;;;;;1.70;1.60;;;;;;;;;;5010894;28;20427;-74
2021/09/17 07:36:46;;;;;;;2.80;2.50;;;;;;;;;;5002246;28;20606;-73
2021/09/17 07:39:12;;;;;;;1.83;1.40;;;;;;;;;;4995584;28;20467;-73
2021/09/17 07:41:38;;;;;;;1.50;1.20;;;;;;;;;;5012150;28;20436;-73
2021/09/17 07:44:04;;;;;;;1.83;1.73;;;;;;;;;;5012229;28;20545;-72
2021/09/17 07:46:30;;;;;;;1.60;1.50;;;;;;;;;;5010566;28;20533;-73
2021/09/17 07:48:56;;;;;;;1.70;1.60;;;;;;;;;;5011380;28;20486;-73
2021/09/17 07:51:22;;;;;;;1.20;1.10;;;;;;;;;;5012057;28;20209;-72
2021/09/17 07:53:48;;;;;;;7.97;4.60;;;;;;;;;;5011660;28;20483;-73
2021/09/17 07:56:14;;;;;;;3.00;2.80;;;;;;;;;;5011448;28;20386;-73
2021/09/17 07:58:40;;;;;;;2.70;1.60;;;;;;;;;;5021298;28;20896;-73
2021/09/17 08:01:06;;;;;;;2.17;1.97;;;;;;;;;;5011859;28;20761;-72
2021/09/17 08:03:32;;;;;;;2.37;2.20;;;;;;;;;;4994360;28;20408;-73
2021/09/17 08:05:59;;;;;;;2.37;1.93;;;;;;;;;;5011279;28;20445;-72
2021/09/17 08:08:25;;;;;;;2.90;1.90;;;;;;;;;;5011427;28;20533;-73
2021/09/17 08:10:51;;;;;;;2.83;2.13;;;;;;;;;;5011944;28;20409;-73
2021/09/17 08:13:17;;;;;;;3.63;2.13;;;;;;;;;;5011820;28;20448;-72
2021/09/17 08:15:43;;;;;;;2.97;2.67;;;;;;;;;;5011394;28;20495;-73
2021/09/17 08:18:09;;;;;;;2.43;2.23;;;;;;;;;;5010606;28;20484;-73
2021/09/17 08:20:37;;;;;;;1.83;1.70;;;;;;;;;;5009930;28;20674;-73
2021/09/17 08:23:03;;;;;;;2.50;2.30;;;;;;;;;;5011972;28;20426;-73
2021/09/17 08:25:29;;;;;;;3.83;3.53;;;;;;;;;;5011795;28;20517;-73
2021/09/17 08:27:55;;;;;;;4.13;2.00;;;;;;;;;;5020417;28;20418;-73
2021/09/17 08:30:21;;;;;;;3.10;2.50;;;;;;;;;;5025320;28;20802;-73
2021/09/17 08:32:47;;;;;;;4.43;2.93;;;;;;;;;;5031466;28;20434;-73
2021/09/17 08:35:14;;;;;;;3.33;1.60;;;;;;;;;;5020348;28;20432;-73
2021/09/17 08:37:41;;;;;;;2.13;1.83;;;;;;;;;;5010743;28;20484;-73
2021/09/17 08:40:07;;;;;;;3.27;2.70;;;;;;;;;;5011797;28;20391;-73
2021/09/17 08:42:34;;;;;;;2.00;1.90;;;;;;;;;;5011115;28;20422;-73
2021/09/17 08:45:00;;;;;;;3.70;2.37;;;;;;;;;;5011714;28;20542;-72
2021/09/17 08:47:26;;;;;;;2.90;2.53;;;;;;;;;;5010108;28;20504;-71
2021/09/17 08:49:52;;;;;;;3.73;2.83;;;;;;;;;;5013206;28;20991;-73
2021/09/17 08:52:18;;;;;;;4.53;4.03;;;;;;;;;;5015327;28;20441;-73
2021/09/17 08:54:44;;;;;;;1.90;1.80;;;;;;;;;;5015101;28;20433;-73
2021/09/17 08:57:10;;;;;;;2.30;2.10;;;;;;;;;;5020526;28;20438;-73
2021/09/17 08:59:36;;;;;;;1.83;1.73;;;;;;;;;;5026604;28;20889;-73
2021/09/17 09:02:22;;;;;;;5.10;3.00;;;;;;;;;;5025154;28;20438;-73
2021/09/17 09:05:04;;;;;;;7.43;2.90;;;;;;;;;;5015172;28;20461;-73
2021/09/17 09:07:35;;;;;;;4.27;3.10;;;;;;;;;;5013749;28;20448;-73
2021/09/17 09:10:11;;;;;;;3.10;2.07;;;;;;;;;;5014834;28;20435;-73
2021/09/17 09:12:43;;;;;;;1.87;1.67;;;;;;;;;;5014938;28;20413;-73
2021/09/17 09:15:18;;;;;;;3.00;1.60;;;;;;;;;;5013638;28;20503;-73
2021/09/17 09:17:45;;;;;;;6.23;3.30;;;;;;;;;;5013390;28;20484;-73
2021/09/17 09:20:23;;;;;;;2.40;2.17;;;;;;;;;;5014917;28;20571;-73
2021/09/17 09:23:03;;;;;;;5.07;4.67;;;;;;;;;;5014915;28;20391;-73
2021/09/17 09:25:29;;;;;;;2.97;2.53;;;;;;;;;;5014803;28;20780;-73
2021/09/17 09:28:09;;;;;;;1.80;1.70;;;;;;;;;;5015355;28;20498;-74
2021/09/17 09:30:35;;;;;;;2.40;2.20;;;;;;;;;;5024026;28;20920;-73
2021/09/17 09:33:20;;;;;;;3.20;3.00;;;;;;;;;;5006238;28;20468;-73
2021/09/17 09:35:46;;;;;;;2.03;1.83;;;;;;;;;;5006280;28;20442;-73
2021/09/17 09:38:12;;;;;;;2.77;2.57;;;;;;;;;;5014418;28;20448;-73
2021/09/17 09:40:38;;;;;;;1.13;1.03;;;;;;;;;;5014954;28;20395;-73
2021/09/17 09:43:04;;;;;;;2.90;2.70;;;;;;;;;;5014554;28;20453;-74
2021/09/17 09:45:32;;;;;;;1.27;1.13;;;;;;;;;;5013750;28;21014;-73
2021/09/17 09:47:58;;;;;;;2.30;2.17;;;;;;;;;;5013611;28;20519;-73
2021/09/17 09:50:25;;;;;;;1.63;1.50;;;;;;;;;;5014326;28;20429;-73
2021/09/17 09:52:55;;;;;;;3.03;2.70;;;;;;;;;;5014475;28;20409;-72
2021/09/17 09:55:21;;;;;;;1.90;1.33;;;;;;;;;;5012941;28;20392;-72
2021/09/17 09:57:47;;;;;;;2.83;1.87;;;;;;;;;;5022704;28;20435;-72
2021/09/17 10:00:14;;;;;;;3.90;3.53;;;;;;;;;;5017771;28;20432;-73
2021/09/17 10:02:41;;;;;;;2.43;1.83;;;;;;;;;;5014551;28;20388;-72
2021/09/17 10:05:08;;;;;;;3.53;3.13;;;;;;;;;;5013380;28;20874;-73
2021/09/17 10:07:34;;;;;;;2.03;1.93;;;;;;;;;;5013415;28;20430;-72
2021/09/17 10:10:01;;;;;;;1.60;1.50;;;;;;;;;;5014016;28;20434;-72
2021/09/17 10:12:27;;;;;;;3.20;2.73;;;;;;;;;;5013171;28;21054;-76
2021/09/17 10:14:53;;;;;;;5.23;1.70;;;;;;;;;;5013361;28;20400;-72
2021/09/17 10:17:22;;;;;;;3.13;2.93;;;;;;;;;;5012182;28;20445;-72
2021/09/17 10:19:49;;;;;;;1.30;1.20;;;;;;;;;;5013134;28;20388;-72
2021/09/17 10:22:27;;;;;;;6.63;2.07;;;;;;;;;;5013595;28;20412;-72
2021/09/17 10:25:10;;;;;;;1.63;1.53;;;;;;;;;;5009470;28;20440;-72
2021/09/17 10:27:37;;;;;;;2.03;1.93;;;;;;;;;;5009081;28;20424;-72
2021/09/17 10:30:11;;;;;;;1.90;1.70;;;;;;;;;;5021808;28;20408;-72
2021/09/17 10:32:39;;;;;;;1.67;1.57;;;;;;;;;;4993934;28;20415;-72
2021/09/17 10:35:14;;;;;;;1.60;1.50;;;;;;;;;;4993941;28;20438;-72
2021/09/17 10:37:59;;;;;;;4.43;3.10;;;;;;;;;;5008189;28;20506;-72
2021/09/17 10:40:42;;;;;;;3.10;2.13;;;;;;;;;;5013404;28;20448;-72
2021/09/17 10:43:10;;;;;;;2.83;2.63;;;;;;;;;;5011322;28;20408;-72
2021/09/17 10:45:42;;;;;;;4.77;2.30;;;;;;;;;;5009127;28;20469;-72
2021/09/17 10:48:09;;;;;;;4.40;2.40;;;;;;;;;;4993158;28;20409;-72
2021/09/17 10:50:40;;;;;;;2.40;2.30;;;;;;;;;;5025554;28;20420;-72
2021/09/17 10:53:06;;;;;;;5.70;2.60;;;;;;;;;;5013493;28;20820;-72
2021/09/17 10:55:44;;;;;;;2.47;1.90;;;;;;;;;;5013311;28;20413;-73
2021/09/17 10:58:19;;;;;;;3.23;2.80;;;;;;;;;;5020333;28;20449;-72
2021/09/17 11:00:55;;;;;;;2.50;2.30;;;;;;;;;;5025433;28;20428;-72
2021/09/17 11:03:50;;;;;;;2.53;2.33;;;;;;;;;;5012572;28;20433;-72
2021/09/17 11:06:19;;;;;;;3.37;1.80;;;;;;;;;;5011005;28;20467;-71
2021/09/17 11:08:52;;;;;;;6.20;3.40;;;;;;;;;;5011659;28;20409;-73
2021/09/17 11:11:28;;;;;;;1.97;1.50;;;;;;;;;;5010658;28;20894;-72
2021/09/17 11:14:04;;;;;;;1.90;1.80;;;;;;;;;;5012549;28;20493;-72
2021/09/17 11:16:31;;;;;;;4.10;2.13;;;;;;;;;;5012049;28;20432;-72
2021/09/17 11:19:00;;;;;;;1.63;0.97;;;;;;;;;;5012446;28;20441;-72
2021/09/17 11:21:27;;;;;;;2.20;2.10;;;;;;;;;;5012250;28;20789;-73
2021/09/17 11:23:53;;;;;;;1.50;1.40;;;;;;;;;;5012615;28;20410;-72
2021/09/17 11:26:20;;;;;;;2.40;1.67;;;;;;;;;;5011793;28;20485;-72
2021/09/17 11:28:57;;;;;;;1.50;1.40;;;;;;;;;;5029753;28;20413;-72
2021/09/17 11:31:25;;;;;;;3.40;3.03;;;;;;;;;;5011508;28;20853;-72
2021/09/17 11:33:56;;;;;;;1.60;1.50;;;;;;;;;;5012627;28;20412;-72
2021/09/17 11:36:38;;;;;;;4.07;1.73;;;;;;;;;;5011451;28;20471;-72
2021/09/17 11:39:22;;;;;;;3.13;1.53;;;;;;;;;;5001523;28;20775;-72
2021/09/17 11:41:59;;;;;;;2.23;1.87;;;;;;;;;;4992746;28;20399;-72
2021/09/17 11:44:39;;;;;;;1.30;1.20;;;;;;;;;;4998300;28;20834;-72
2021/09/17 11:47:06;;;;;;;2.20;1.40;;;;;;;;;;4991811;28;20519;-71
2021/09/17 11:49:34;;;;;;;2.23;2.13;;;;;;;;;;5011362;28;20968;-72
2021/09/17 11:52:01;;;;;;;2.10;1.90;;;;;;;;;;5012187;28;20428;-71
2021/09/17 11:54:27;;;;;;;3.37;1.87;;;;;;;;;;5012059;28;20427;-72
2021/09/17 11:56:59;;;;;;;2.37;2.17;;;;;;;;;;5012614;28;20449;-72
2021/09/17 11:59:32;;;;;;;1.27;1.17;;;;;;;;;;5015642;28;20796;-72
2021/09/17 12:02:17;;;;;;;1.97;1.60;;;;;;;;;;5011166;28;20424;-72
2021/09/17 12:04:56;;;;;;;1.90;1.70;;;;;;;;;;5011861;28;20459;-71
2021/09/17 12:07:23;;;;;;;2.47;2.23;;;;;;;;;;5011044;28;20433;-72
2021/09/17 12:09:49;;;;;;;1.73;1.63;;;;;;;;;;5012030;28;20452;-71
2021/09/17 12:12:15;;;;;;;2.50;2.20;;;;;;;;;;4995459;28;20456;-71
2021/09/17 12:14:49;;;;;;;1.83;1.73;;;;;;;;;;4992044;28;20412;-72
2021/09/17 12:17:15;;;;;;;1.57;1.30;;;;;;;;;;5007623;28;20450;-71
2021/09/17 12:19:57;;;;;;;1.40;1.17;;;;;;;;;;5012072;28;20471;-71
2021/09/17 12:22:30;;;;;;;1.40;1.30;;;;;;;;;;5012177;28;20478;-71
2021/09/17 12:25:05;;;;;;;3.63;1.43;;;;;;;;;;5015950;28;20881;-71
2021/09/17 12:27:31;;;;;;;1.23;1.00;;;;;;;;;;5018620;28;20465;-72
2021/09/17 12:30:05;;;;;;;1.80;1.70;;;;;;;;;;5026937;28;20421;-71
2021/09/17 12:32:31;;;;;;;3.20;2.90;;;;;;;;;;5026365;28;20809;-71
2021/09/17 12:35:08;;;;;;;3.43;1.83;;;;;;;;;;5015971;28;20910;-71
2021/09/17 12:37:34;;;;;;;1.10;1.00;;;;;;;;;;5014826;28;20780;-71
2021/09/17 12:40:09;;;;;;;1.93;1.83;;;;;;;;;;5015994;28;20817;-71
2021/09/17 12:42:35;;;;;;;1.83;1.53;;;;;;;;;;5014698;28;20421;-72
2021/09/17 12:45:06;;;;;;;7.90;1.97;;;;;;;;;;5012396;28;20444;-71
2021/09/17 12:47:33;;;;;;;7.67;4.03;;;;;;;;;;5003659;28;20442;-71
2021/09/17 12:50:07;;;;;;;3.37;2.67;;;;;;;;;;5015945;28;21192;-72
2021/09/17 12:52:36;;;;;;;2.03;1.53;;;;;;;;;;5015412;28;20780;-72
2021/09/17 12:55:02;;;;;;;2.20;1.77;;;;;;;;;;5013098;28;20409;-72
2021/09/17 12:57:29;;;;;;;2.63;2.30;;;;;;;;;;5020989;28;20527;-72
2021/09/17 13:00:00;;;;;;;2.20;1.77;;;;;;;;;;5019847;28;20432;-71
2021/09/17 13:02:26;;;;;;;2.47;2.27;;;;;;;;;;5029097;28;20452;-72
2021/09/17 13:04:59;;;;;;;2.97;2.63;;;;;;;;;;5015108;28;20471;-71
2021/09/17 13:07:25;;;;;;;2.57;2.37;;;;;;;;;;4996831;28;20501;-72
2021/09/17 13:09:51;;;;;;;3.83;1.63;;;;;;;;;;5013834;28;20440;-72
2021/09/17 13:12:17;;;;;;;1.77;1.67;;;;;;;;;;5014636;28;20439;-71
2021/09/17 13:14:43;;;;;;;1.73;1.63;;;;;;;;;;5014810;28;20897;-72
2021/09/17 13:17:09;;;;;;;2.30;1.73;;;;;;;;;;5014269;28;20417;-72
2021/09/17 13:19:35;;;;;;;5.10;1.73;;;;;;;;;;5004478;28;20437;-72
2021/09/17 13:22:01;;;;;;;2.20;2.00;;;;;;;;;;4995278;28;20509;-72
2021/09/17 13:24:27;;;;;;;3.43;1.90;;;;;;;;;;4995232;28;20449;-72
2021/09/17 13:26:53;;;;;;;2.57;2.37;;;;;;;;;;5001221;28;20422;-72
2021/09/17 13:29:19;;;;;;;6.70;1.83;;;;;;;;;;5025450;28;20751;-72
2021/09/17 13:31:45;;;;;;;2.03;1.83;;;;;;;;;;5019958;28;20420;-72
2021/09/17 13:34:11;;;;;;;4.00;3.30;;;;;;;;;;5009165;28;20438;-72
2021/09/17 13:36:37;;;;;;;2.87;2.67;;;;;;;;;;4994459;28;20424;-72
2021/09/17 13:39:03;;;;;;;2.63;2.43;;;;;;;;;;4995351;28;20415;-71
2021/09/17 13:41:29;;;;;;;4.73;2.97;;;;;;;;;;4995477;28;20418;-72
2021/09/17 13:43:55;;;;;;;3.47;2.20;;;;;;;;;;4994978;28;20390;-71
2021/09/17 13:46:21;;;;;;;3.17;1.20;;;;;;;;;;4994953;28;20456;-71
2021/09/17 13:48:47;;;;;;;1.67;1.57;;;;;;;;;;5014718;28;20479;-72
2021/09/17 13:51:14;;;;;;;2.00;1.80;;;;;;;;;;5014325;28;20803;-73
2021/09/17 13:53:41;;;;;;;0.80;0.80;;;;;;;;;;5014352;28;20398;-73
2021/09/17 13:56:07;;;;;;;2.23;2.03;;;;;;;;;;5011972;28;20439;-73
2021/09/17 13:58:33;;;;;;;1.20;1.00;;;;;;;;;;5015018;28;20498;-73
2021/09/17 14:00:59;;;;;;;2.27;1.83;;;;;;;;;;5014126;28;20894;-73
2021/09/17 14:03:25;;;;;;;3.33;1.30;;;;;;;;;;5012651;28;20439;-72
2021/09/17 14:05:51;;;;;;;3.43;2.30;;;;;;;;;;5013320;28;20477;-73
2021/09/17 14:08:18;;;;;;;4.47;2.63;;;;;;;;;;5013942;28;20397;-73
2021/09/17 14:10:44;;;;;;;2.13;1.93;;;;;;;;;;5013826;28;20418;-73
2021/09/17 14:13:10;;;;;;;2.60;2.20;;;;;;;;;;5014022;28;20458;-72
2021/09/17 14:15:36;;;;;;;2.83;2.57;;;;;;;;;;5013701;28;20414;-72
2021/09/17 14:18:03;;;;;;;1.60;1.50;;;;;;;;;;5012691;28;20864;-72
2021/09/17 14:20:29;;;;;;;1.63;1.53;;;;;;;;;;5013781;28;20468;-73
2021/09/17 14:22:56;;;;;;;2.20;1.57;;;;;;;;;;5013477;28;20897;-73
2021/09/17 14:25:22;;;;;;;1.30;1.20;;;;;;;;;;5013039;28;20582;-72
2021/09/17 14:27:48;;;;;;;2.60;2.37;;;;;;;;;;5008702;28;20454;-73
2021/09/17 14:30:14;;;;;;;1.40;1.30;;;;;;;;;;5027128;28;20423;-72
2021/09/17 14:32:40;;;;;;;1.60;1.50;;;;;;;;;;5014234;28;20997;-73
2021/09/17 14:35:06;;;;;;;1.90;1.73;;;;;;;;;;5011557;28;20424;-72
2021/09/17 14:37:32;;;;;;;1.20;1.10;;;;;;;;;;5008233;28;20453;-73
2021/09/17 14:39:58;;;;;;;1.93;1.80;;;;;;;;;;5010135;28;20444;-73
2021/09/17 14:42:24;;;;;;;2.30;1.57;;;;;;;;;;5011677;28;20492;-72
2021/09/17 14:44:50;;;;;;;1.30;1.20;;;;;;;;;;5011146;28;21009;-72